createdAt,value
2019-01-27T00:00:29.802Z,99.90
2019-01-27T00:02:58.080Z,99.90
2019-01-27T00:05:26.395Z,99.90
2019-01-27T00:07:54.664Z,99.90
2019-01-27T00:10:22.945Z,99.90
2019-01-27T00:12:51.230Z,99.90
2019-01-27T00:15:19.535Z,99.90
2019-01-27T00:17:47.811Z,99.90
2019-01-27T00:20:19.025Z,99.90
2019-01-27T00:22:47.331Z,99.90
2019-01-27T00:25:15.604Z,99.90
2019-01-27T00:27:43.882Z,99.90
2019-01-27T00:30:20.982Z,99.90
2019-01-27T00:32:49.428Z,99.90
2019-01-27T00:35:17.784Z,99.90
2019-01-27T00:37:46.078Z,99.90
2019-01-27T00:40:16.163Z,99.90
2019-01-27T00:42:44.480Z,99.90
2019-01-27T00:45:19.369Z,99.90
2019-01-27T00:47:47.647Z,99.90
2019-01-27T00:50:19.397Z,99.90
2019-01-27T00:52:47.675Z,99.90
2019-01-27T00:55:21.538Z,99.90
2019-01-27T00:57:49.817Z,99.90
2019-01-27T01:00:24.089Z,99.90
2019-01-27T01:02:52.378Z,99.90
2019-01-27T01:05:20.696Z,99.90
2019-01-27T01:07:49.049Z,99.90
2019-01-27T01:10:21.952Z,99.90
2019-01-27T01:12:50.246Z,99.90
2019-01-27T01:15:18.670Z,99.90
2019-01-27T01:17:46.948Z,99.90
2019-01-27T01:20:20.947Z,99.90
2019-01-27T01:22:50.962Z,99.90
2019-01-27T01:25:24.169Z,99.90
2019-01-27T01:27:52.523Z,99.90
2019-01-27T01:30:28.990Z,99.90
2019-01-27T01:32:57.413Z,99.90
2019-01-27T01:35:25.691Z,99.90
2019-01-27T01:37:54.040Z,99.90
2019-01-27T01:40:22.322Z,99.90
2019-01-27T01:42:50.650Z,99.90
2019-01-27T01:45:27.811Z,99.90
2019-01-27T01:47:56.139Z,99.90
2019-01-27T01:50:24.409Z,99.90
2019-01-27T01:52:52.687Z,99.90
2019-01-27T01:55:26.690Z,99.90
2019-01-27T01:57:55.016Z,99.90
2019-01-27T02:00:27.950Z,99.90
2019-01-27T02:02:56.273Z,99.90
2019-01-27T02:05:24.555Z,99.90
2019-01-27T02:07:52.828Z,99.90
2019-01-27T02:10:22.176Z,99.90
2019-01-27T02:12:51.071Z,99.90
2019-01-27T02:15:29.074Z,99.90
2019-01-27T02:17:57.344Z,99.90
2019-01-27T02:20:25.627Z,99.90
2019-01-27T02:22:53.921Z,99.90
2019-01-27T02:25:22.246Z,99.90
2019-01-27T02:27:50.508Z,99.90
2019-01-27T02:30:19.424Z,99.90
2019-01-27T02:32:47.689Z,99.90
2019-01-27T02:35:16.045Z,99.90
2019-01-27T02:37:44.352Z,99.90
2019-01-27T02:40:12.703Z,99.90
2019-01-27T02:42:41.062Z,99.90
2019-01-27T02:45:16.657Z,99.90
2019-01-27T02:47:44.948Z,99.90
2019-01-27T02:50:13.320Z,99.90
2019-01-27T02:52:41.669Z,99.90
2019-01-27T02:55:10.050Z,99.90
2019-01-27T02:57:38.325Z,99.90
2019-01-27T03:00:15.841Z,99.90
2019-01-27T03:02:44.116Z,99.90
2019-01-27T03:05:14.041Z,99.90
2019-01-27T03:07:42.399Z,99.90
2019-01-27T03:10:16.080Z,99.90
2019-01-27T03:12:44.406Z,99.90
2019-01-27T03:15:12.866Z,99.90
2019-01-27T03:17:41.220Z,99.90
2019-01-27T03:20:11.747Z,99.90
2019-01-27T03:22:40.055Z,99.90
2019-01-27T03:25:11.580Z,99.90
2019-01-27T03:27:39.861Z,99.90
2019-01-27T03:30:32.313Z,99.90
2019-01-27T03:33:00.667Z,99.90
2019-01-27T03:35:29.063Z,99.90
2019-01-27T03:37:57.341Z,99.90
2019-01-27T03:40:25.605Z,99.90
2019-01-27T03:42:53.886Z,99.90
2019-01-27T03:45:23.508Z,99.90
2019-01-27T03:47:51.786Z,99.90
2019-01-27T03:50:20.922Z,99.90
2019-01-27T03:52:49.350Z,99.90
2019-01-27T03:55:20.109Z,99.90
2019-01-27T03:57:48.383Z,99.90
2019-01-27T04:00:19.323Z,99.90
2019-01-27T04:02:47.715Z,99.90
2019-01-27T04:05:15.995Z,99.90
2019-01-27T04:07:44.277Z,99.90
2019-01-27T04:10:15.969Z,99.90
2019-01-27T04:12:44.657Z,99.90
2019-01-27T04:15:13.588Z,99.90
2019-01-27T04:17:41.935Z,99.90
2019-01-27T04:20:15.912Z,99.90
2019-01-27T04:22:44.261Z,99.90
2019-01-27T04:25:13.203Z,99.90
2019-01-27T04:27:41.482Z,99.90
2019-01-27T04:30:15.801Z,99.90
2019-01-27T04:32:44.142Z,99.90
2019-01-27T04:35:12.810Z,99.90
2019-01-27T04:37:41.092Z,99.90
2019-01-27T04:40:12.717Z,99.90
2019-01-27T04:42:41.065Z,99.90
2019-01-27T04:45:12.280Z,99.90
2019-01-27T04:47:40.558Z,99.90
2019-01-27T04:50:11.601Z,99.90
2019-01-27T04:52:39.959Z,99.90
2019-01-27T04:55:11.269Z,99.90
2019-01-27T04:57:39.595Z,99.90
2019-01-27T05:00:11.140Z,99.90
2019-01-27T05:02:41.067Z,99.90
2019-01-27T05:05:11.893Z,99.90
2019-01-27T05:07:40.340Z,99.90
2019-01-27T05:10:11.719Z,99.90
2019-01-27T05:12:40.074Z,99.90
2019-01-27T05:15:11.578Z,99.90
2019-01-27T05:17:39.860Z,99.90
2019-01-27T05:20:10.744Z,99.90
2019-01-27T05:22:44.183Z,99.90
2019-01-27T05:25:17.120Z,99.90
2019-01-27T05:27:45.394Z,99.90
2019-01-27T05:30:25.156Z,99.90
2019-01-27T05:32:53.449Z,99.90
2019-01-27T05:35:21.802Z,99.90
2019-01-27T05:37:50.087Z,99.90
2019-01-27T05:40:21.657Z,99.90
2019-01-27T05:42:49.942Z,99.90
2019-01-27T05:45:22.202Z,99.90
2019-01-27T05:47:50.634Z,99.90
2019-01-27T05:50:18.990Z,99.90
2019-01-27T05:52:47.278Z,99.90
2019-01-27T05:55:19.755Z,99.90
2019-01-27T05:57:48.039Z,99.90
2019-01-27T06:00:20.565Z,99.90
2019-01-27T06:02:48.858Z,99.90
2019-01-27T06:05:17.201Z,99.90
2019-01-27T06:07:45.516Z,99.90
2019-01-27T06:10:13.939Z,99.90
2019-01-27T06:12:42.217Z,99.90
2019-01-27T06:15:16.306Z,99.90
2019-01-27T06:17:44.603Z,99.90
2019-01-27T06:20:17.093Z,99.90
2019-01-27T06:22:45.487Z,99.90
2019-01-27T06:25:20.183Z,99.90
2019-01-27T06:27:48.535Z,99.90
2019-01-27T06:30:19.456Z,99.90
2019-01-27T06:32:49.798Z,99.90
2019-01-27T06:35:18.074Z,99.90
2019-01-27T06:37:46.371Z,99.90
2019-01-27T06:40:14.653Z,99.90
2019-01-27T06:42:42.933Z,99.90
2019-01-27T06:45:11.246Z,99.90
2019-01-27T06:47:39.530Z,99.90
2019-01-27T06:50:10.849Z,99.90
2019-01-27T06:52:39.133Z,99.90
2019-01-27T06:55:16.180Z,99.90
2019-01-27T06:57:44.485Z,99.90
2019-01-27T07:00:23.512Z,99.90
2019-01-27T07:02:53.469Z,99.90
2019-01-27T07:05:26.129Z,99.90
2019-01-27T07:07:58.666Z,99.90
2019-01-27T07:10:40.700Z,99.90
2019-01-27T07:13:16.443Z,99.90
2019-01-27T07:15:52.468Z,99.90
2019-01-27T07:18:24.998Z,99.90
2019-01-27T07:21:11.352Z,99.90
2019-01-27T07:23:44.315Z,99.90
2019-01-27T07:26:29.786Z,99.90
2019-01-27T07:31:53.562Z,99.90
2019-01-27T07:34:29.705Z,99.90
2019-01-27T07:37:16.417Z,99.90
2019-01-27T07:39:46.404Z,99.90
2019-01-27T07:42:16.326Z,99.90
2019-01-27T07:44:46.277Z,99.90
2019-01-27T07:47:24.690Z,99.90
2019-01-27T07:49:54.622Z,99.90
2019-01-27T07:52:33.366Z,99.90
2019-01-27T07:55:19.479Z,99.90
2019-01-27T07:57:49.464Z,99.90
2019-01-27T08:00:27.018Z,99.90
2019-01-27T08:03:14.357Z,99.90
2019-01-27T08:05:47.123Z,99.90
2019-01-27T08:08:31.667Z,99.90
2019-01-27T08:11:17.929Z,99.90
2019-01-27T08:13:47.859Z,99.90
2019-01-27T08:16:17.818Z,99.90
2019-01-27T08:19:04.097Z,99.90
2019-01-27T08:21:34.123Z,99.90
2019-01-27T08:24:16.113Z,99.90
2019-01-27T08:26:46.032Z,99.90
2019-01-27T08:29:21.890Z,99.90
2019-01-27T08:31:57.454Z,99.90
2019-01-27T08:34:30.230Z,99.90
2019-01-27T08:37:11.967Z,99.90
2019-01-27T08:39:44.554Z,99.90
2019-01-27T08:42:30.477Z,99.90
2019-01-27T08:45:03.455Z,99.90
2019-01-27T08:47:31.806Z,99.90
2019-01-27T08:50:00.101Z,99.90
2019-01-27T08:52:28.503Z,99.90
2019-01-27T08:54:56.858Z,99.90
2019-01-27T08:57:25.210Z,99.70
2019-01-27T08:59:53.494Z,99.70
2019-01-27T09:02:23.418Z,99.80
2019-01-27T09:04:53.333Z,99.60
2019-01-27T09:07:29.305Z,99.50
2019-01-27T09:10:01.989Z,99.30
2019-01-27T09:12:31.920Z,99.20
2019-01-27T09:15:07.438Z,99.10
2019-01-27T09:17:37.433Z,99.10
2019-01-27T09:20:10.485Z,99.00
2019-01-27T09:22:56.322Z,99.00
2019-01-27T09:25:26.280Z,99.00
2019-01-27T09:27:56.190Z,99.00
2019-01-27T09:30:32.087Z,99.00
2019-01-27T09:33:13.799Z,98.90
2019-01-27T09:35:53.097Z,98.90
2019-01-27T09:38:23.078Z,98.80
2019-01-27T09:41:11.312Z,98.80
2019-01-27T09:43:44.041Z,98.80
2019-01-27T09:46:25.647Z,98.80
2019-01-27T09:48:55.563Z,98.70
2019-01-27T09:51:25.702Z,98.70
2019-01-27T09:53:55.703Z,98.70
2019-01-27T09:56:34.581Z,98.70
2019-01-27T09:59:04.602Z,98.70
2019-01-27T10:01:37.241Z,98.60
2019-01-27T10:04:07.196Z,98.60
2019-01-27T10:06:49.040Z,98.60
2019-01-27T10:09:34.117Z,98.60
2019-01-27T10:12:16.266Z,98.70
2019-01-27T10:14:52.859Z,98.70
2019-01-27T10:17:25.625Z,99.10
2019-01-27T10:19:58.286Z,98.90
2019-01-27T10:22:31.021Z,98.90
2019-01-27T10:25:03.736Z,99.00
2019-01-27T10:27:36.748Z,99.10
2019-01-27T10:30:26.160Z,99.30
2019-01-27T10:32:56.177Z,99.40
2019-01-27T10:35:44.299Z,99.50
2019-01-27T10:38:30.428Z,99.70
2019-01-27T10:41:06.366Z,99.80
2019-01-27T10:43:36.288Z,99.90
2019-01-27T10:46:09.811Z,99.90
2019-01-27T10:48:42.783Z,99.90
2019-01-27T10:51:12.956Z,99.90
2019-01-27T10:53:48.852Z,99.90
2019-01-27T10:56:30.666Z,99.90
2019-01-27T10:59:12.448Z,99.90
2019-01-27T11:01:45.307Z,99.80
2019-01-27T11:04:21.210Z,99.80
2019-01-27T11:07:07.394Z,99.80
2019-01-27T11:09:37.334Z,99.90
2019-01-27T11:12:13.168Z,99.90
2019-01-27T11:14:52.235Z,99.90
2019-01-27T11:17:38.205Z,99.90
2019-01-27T11:20:11.419Z,99.90
2019-01-27T11:22:59.332Z,99.90
2019-01-27T11:25:35.172Z,99.90
2019-01-27T11:28:05.082Z,99.90
2019-01-27T11:30:35.002Z,99.90
2019-01-27T11:33:20.147Z,99.90
2019-01-27T11:35:58.722Z,99.90
2019-01-27T11:38:28.771Z,99.90
2019-01-27T11:41:04.768Z,99.90
2019-01-27T11:43:40.887Z,99.90
2019-01-27T11:46:17.069Z,99.80
2019-01-27T11:48:47.034Z,99.80
2019-01-27T11:51:17.245Z,99.70
2019-01-27T11:53:45.517Z,99.70
2019-01-27T11:56:13.797Z,99.70
2019-01-27T11:58:42.074Z,99.60
2019-01-27T12:01:10.385Z,99.60
2019-01-27T12:03:38.666Z,99.60
2019-01-27T12:06:06.943Z,99.60
2019-01-27T12:08:35.333Z,99.90
2019-01-27T12:11:03.610Z,99.90
2019-01-27T12:13:31.891Z,99.90
2019-01-27T12:16:00.270Z,99.90
2019-01-27T12:18:28.545Z,99.90
2019-01-27T12:20:56.900Z,99.90
2019-01-27T12:23:25.202Z,99.90
2019-01-27T12:25:53.474Z,99.90
2019-01-27T12:28:21.744Z,99.90
2019-01-27T12:30:50.023Z,99.90
2019-01-27T12:33:18.380Z,99.90
2019-01-27T12:35:46.686Z,99.90
2019-01-27T12:38:14.951Z,99.90
2019-01-27T12:40:43.220Z,99.90
2019-01-27T12:43:11.526Z,99.90
2019-01-27T12:45:39.795Z,99.80
2019-01-27T12:48:08.067Z,99.70
2019-01-27T12:50:36.346Z,99.50
2019-01-27T12:53:04.628Z,99.30
2019-01-27T12:55:33.001Z,99.10
2019-01-27T12:58:02.153Z,98.80
2019-01-27T13:00:42.216Z,98.60
2019-01-27T13:03:10.601Z,98.30
2019-01-27T13:05:38.883Z,97.90
2019-01-27T13:08:07.177Z,97.60
2019-01-27T13:10:35.459Z,97.30
2019-01-27T13:13:03.738Z,96.90
2019-01-27T13:15:32.019Z,96.90
2019-01-27T13:18:00.326Z,96.60
2019-01-27T13:20:28.602Z,96.60
2019-01-27T13:22:56.869Z,96.50
2019-01-27T13:25:25.350Z,96.70
2019-01-27T13:27:53.658Z,96.80
2019-01-27T13:30:26.747Z,96.80
2019-01-27T13:32:55.117Z,96.80
2019-01-27T13:35:23.387Z,96.90
2019-01-27T13:37:52.733Z,97.00
2019-01-27T13:40:24.027Z,97.00
2019-01-27T13:42:52.377Z,97.10
2019-01-27T13:45:29.004Z,97.20
2019-01-27T13:47:59.172Z,97.30
2019-01-27T13:50:27.879Z,97.30
2019-01-27T13:52:56.265Z,97.30
2019-01-27T13:55:30.171Z,97.40
2019-01-27T13:57:58.461Z,97.40
2019-01-27T14:00:29.726Z,97.50
2019-01-27T14:02:58.067Z,97.50
2019-01-27T14:05:26.394Z,97.50
2019-01-27T14:07:54.682Z,97.50
2019-01-27T14:10:28.115Z,97.40
2019-01-27T14:12:56.399Z,97.50
2019-01-27T14:15:33.581Z,97.50
2019-01-27T14:18:01.884Z,97.50
2019-01-27T14:20:30.140Z,97.50
2019-01-27T14:22:58.414Z,97.50
2019-01-27T14:25:29.240Z,97.50
2019-01-27T14:27:57.993Z,97.50
2019-01-27T14:30:44.451Z,97.60
2019-01-27T14:33:12.801Z,98.00
2019-01-27T14:35:41.076Z,97.60
2019-01-27T14:38:09.376Z,97.60
2019-01-27T14:40:37.660Z,97.60
2019-01-27T14:43:06.014Z,97.70
2019-01-27T14:45:34.960Z,97.80
2019-01-27T14:48:04.220Z,97.70
2019-01-27T14:50:35.240Z,97.70
2019-01-27T14:53:03.516Z,97.80
2019-01-27T14:55:31.802Z,97.90
2019-01-27T14:58:00.076Z,97.90
2019-01-27T15:00:37.237Z,98.00
2019-01-27T15:03:06.559Z,98.00
2019-01-27T15:05:34.967Z,98.00
2019-01-27T15:08:03.243Z,98.00
2019-01-27T15:10:31.522Z,98.00
2019-01-27T15:12:59.816Z,98.00
2019-01-27T15:15:28.164Z,98.10
2019-01-27T15:17:56.468Z,98.10
2019-01-27T15:20:30.750Z,98.10
2019-01-27T15:22:59.038Z,98.20
2019-01-27T15:25:27.345Z,98.20
2019-01-27T15:27:55.635Z,98.20
2019-01-27T15:30:26.716Z,98.20
2019-01-27T15:32:55.012Z,98.30
2019-01-27T15:35:23.337Z,98.30
2019-01-27T15:37:51.641Z,98.30
2019-01-27T15:40:19.926Z,98.30
2019-01-27T15:42:48.192Z,98.20
2019-01-27T15:45:19.109Z,98.30
2019-01-27T15:47:47.372Z,98.30
2019-01-27T15:50:35.759Z,98.20
2019-01-27T15:53:05.173Z,98.20
2019-01-27T15:55:33.828Z,98.20
2019-01-27T15:58:02.202Z,98.30
2019-01-27T16:00:31.876Z,98.20
2019-01-27T16:03:00.217Z,98.20
2019-01-27T16:05:28.632Z,98.20
2019-01-27T16:07:56.895Z,98.30
2019-01-27T16:10:26.341Z,98.20
2019-01-27T16:12:56.908Z,98.20
2019-01-27T16:15:30.510Z,98.20
2019-01-27T16:17:58.849Z,98.20
2019-01-27T16:20:27.523Z,98.20
2019-01-27T16:22:57.520Z,98.20
2019-01-27T16:25:25.838Z,98.30
2019-01-27T16:27:54.122Z,98.30
2019-01-27T16:30:32.799Z,98.20
2019-01-27T16:33:05.437Z,98.20
2019-01-27T16:35:33.892Z,98.10
2019-01-27T16:38:02.173Z,98.10
2019-01-27T16:40:30.558Z,98.30
2019-01-27T16:42:58.829Z,98.30
2019-01-27T16:45:27.113Z,98.30
2019-01-27T16:47:55.411Z,98.20
2019-01-27T16:50:23.772Z,98.10
2019-01-27T16:52:52.419Z,98.10
2019-01-27T16:55:21.411Z,98.00
2019-01-27T16:57:49.756Z,98.10
2019-01-27T17:00:29.843Z,98.00
2019-01-27T17:02:58.191Z,98.00
2019-01-27T17:05:26.458Z,98.00
2019-01-27T17:07:54.826Z,98.00
2019-01-27T17:10:27.650Z,98.20
2019-01-27T17:12:55.971Z,98.30
2019-01-27T17:15:24.310Z,98.40
2019-01-27T17:17:52.597Z,98.10
2019-01-27T17:20:25.809Z,98.10
2019-01-27T17:22:52.432Z,98.50
2019-01-27T17:25:20.698Z,98.10
2019-01-27T17:27:48.984Z,98.00
2019-01-27T17:30:20.753Z,97.80
2019-01-27T17:32:50.235Z,97.60
2019-01-27T17:35:18.567Z,97.70
2019-01-27T17:37:46.885Z,97.60
2019-01-27T17:40:16.531Z,97.60
2019-01-27T17:42:47.306Z,97.60
2019-01-27T17:45:20.659Z,97.60
2019-01-27T17:47:48.933Z,97.70
2019-01-27T17:50:21.655Z,97.70
2019-01-27T17:52:52.438Z,97.70
2019-01-27T17:55:39.461Z,97.70
2019-01-27T17:58:27.076Z,97.70
2019-01-27T18:00:57.018Z,97.70
2019-01-27T18:03:26.926Z,97.60
2019-01-27T18:05:56.855Z,97.70
2019-01-27T18:08:26.865Z,97.70
2019-01-27T18:10:59.700Z,97.70
2019-01-27T18:13:28.866Z,97.70
2019-01-27T18:15:58.058Z,97.70
2019-01-27T18:18:26.402Z,97.60
2019-01-27T18:20:54.926Z,97.80
2019-01-27T18:23:23.237Z,97.60
2019-01-27T18:25:51.536Z,97.60
2019-01-27T18:28:20.109Z,97.60
2019-01-27T18:30:48.564Z,97.60
2019-01-27T18:33:16.863Z,97.60
2019-01-27T18:35:45.189Z,97.60
2019-01-27T18:38:13.512Z,97.60
2019-01-27T18:40:41.864Z,97.60
2019-01-27T18:43:10.196Z,97.60
2019-01-27T18:45:38.474Z,97.60
2019-01-27T18:48:06.843Z,97.60
2019-01-27T18:50:35.224Z,97.60
2019-01-27T18:53:05.192Z,97.60
2019-01-27T18:55:38.220Z,97.60
2019-01-27T18:58:20.002Z,97.60
2019-01-27T19:00:49.946Z,97.60
2019-01-27T19:03:32.664Z,97.60
2019-01-27T19:06:02.786Z,97.60
2019-01-27T19:08:32.761Z,97.50
2019-01-27T19:11:05.551Z,97.60
2019-01-27T19:13:38.587Z,97.60
2019-01-27T19:16:11.019Z,97.50
2019-01-27T19:18:56.859Z,97.50
2019-01-27T19:21:26.806Z,97.60
2019-01-27T19:23:59.629Z,97.50
2019-01-27T19:26:29.546Z,97.50
2019-01-27T19:28:59.505Z,97.50
2019-01-27T19:31:29.497Z,97.50
2019-01-27T19:34:02.348Z,97.50
2019-01-27T19:36:32.287Z,97.50
2019-01-27T19:39:02.281Z,97.50
2019-01-27T19:41:47.121Z,97.50
2019-01-27T19:44:23.044Z,97.50
2019-01-27T19:46:52.964Z,97.50
2019-01-27T19:49:22.909Z,97.40
2019-01-27T19:52:01.907Z,97.40
2019-01-27T19:54:31.855Z,97.40
2019-01-27T19:57:01.758Z,97.50
2019-01-27T19:59:48.216Z,97.50
2019-01-27T20:02:20.950Z,97.50
2019-01-27T20:04:50.869Z,97.50
2019-01-27T20:07:37.158Z,97.50
2019-01-27T20:10:12.704Z,97.40
2019-01-27T20:12:42.693Z,97.30
2019-01-27T20:15:15.710Z,97.30
2019-01-27T20:17:49.055Z,97.30
2019-01-27T20:20:25.213Z,97.30
2019-01-27T20:23:11.653Z,97.40
2019-01-27T20:25:45.880Z,97.30
2019-01-27T20:28:15.856Z,97.20
2019-01-27T20:30:51.869Z,97.10
2019-01-27T20:33:36.845Z,97.20
2019-01-27T20:36:06.818Z,97.10
2019-01-27T20:38:36.778Z,97.10
2019-01-27T20:41:12.598Z,97.00
2019-01-27T20:43:45.331Z,97.00
2019-01-27T20:46:33.070Z,97.00
2019-01-27T20:49:15.451Z,97.00
2019-01-27T20:51:45.404Z,97.00
2019-01-27T20:54:18.306Z,97.00
2019-01-27T20:56:48.230Z,97.00
2019-01-27T20:59:23.981Z,96.90
2019-01-27T21:01:56.994Z,96.90
2019-01-27T21:04:29.677Z,96.90
2019-01-27T21:06:59.610Z,96.90
2019-01-27T21:09:29.522Z,96.90
2019-01-27T21:12:11.546Z,96.90
2019-01-27T21:14:41.493Z,96.90
2019-01-27T21:17:14.069Z,96.80
2019-01-27T21:19:43.973Z,96.90
2019-01-27T21:22:12.257Z,96.90
2019-01-27T21:24:40.598Z,96.90
2019-01-27T21:27:08.881Z,96.90
2019-01-27T21:29:37.163Z,96.90
2019-01-27T21:32:05.425Z,96.90
2019-01-27T21:34:33.736Z,96.90
2019-01-27T21:37:02.018Z,96.90
2019-01-27T21:39:30.299Z,96.90
2019-01-27T21:41:58.583Z,96.90
2019-01-27T21:44:26.938Z,96.90
2019-01-27T21:46:55.229Z,96.90
2019-01-27T21:49:23.504Z,96.80
2019-01-27T21:51:51.781Z,96.80
2019-01-27T21:54:20.198Z,96.90
2019-01-27T21:56:48.470Z,96.90
2019-01-27T21:59:16.772Z,96.90
2019-01-27T22:02:04.543Z,96.90
2019-01-27T22:04:32.859Z,96.80
2019-01-27T22:07:01.222Z,96.90
2019-01-27T22:09:29.569Z,96.90
2019-01-27T22:11:57.854Z,97.00
2019-01-27T22:14:26.166Z,97.00
2019-01-27T22:16:54.449Z,97.00
2019-01-27T22:19:22.747Z,97.10
2019-01-27T22:21:51.050Z,97.10
2019-01-27T22:24:19.445Z,97.10
2019-01-27T22:26:47.718Z,97.30
2019-01-27T22:29:16.090Z,97.20
2019-01-27T22:31:44.479Z,97.30
2019-01-27T22:34:12.746Z,97.30
2019-01-27T22:36:41.040Z,97.40
2019-01-27T22:39:09.314Z,97.40
2019-01-27T22:41:37.588Z,97.50
2019-01-27T22:44:05.963Z,97.60
2019-01-27T22:46:34.332Z,97.60
2019-01-27T22:49:02.645Z,97.60
2019-01-27T22:51:31.002Z,97.70
2019-01-27T22:53:59.306Z,97.60
2019-01-27T22:56:27.682Z,97.70
2019-01-27T22:58:55.961Z,97.70
2019-01-27T23:01:24.275Z,97.70
2019-01-27T23:03:52.623Z,97.70
2019-01-27T23:06:20.953Z,97.70
2019-01-27T23:08:49.296Z,97.70
2019-01-27T23:11:17.582Z,97.70
2019-01-27T23:13:45.921Z,97.70
2019-01-27T23:16:14.204Z,97.70
2019-01-27T23:18:42.582Z,97.70
2019-01-27T23:21:10.876Z,97.70
2019-01-27T23:23:39.300Z,97.70
2019-01-27T23:26:07.591Z,97.70
2019-01-27T23:28:35.882Z,97.80
2019-01-27T23:31:04.316Z,97.90
2019-01-27T23:33:32.685Z,97.90
2019-01-27T23:36:00.984Z,97.90
2019-01-27T23:38:29.257Z,98.00
2019-01-27T23:40:57.543Z,98.00
2019-01-27T23:43:25.857Z,98.00
2019-01-27T23:45:54.145Z,98.00
2019-01-27T23:48:22.420Z,98.10
2019-01-27T23:50:50.716Z,98.10
2019-01-27T23:53:18.992Z,98.10
2019-01-27T23:55:47.272Z,98.10
2019-01-27T23:58:15.595Z,98.20
